Reno, NV (89501)

2:12 PM PDT on July 24, 2016 (GMT -0700)
UNR Campus, LMR Roof | | Change Station

Elev 4570 ft 39.54 °N, 119.81 °W | Updated 3 minutes ago

Clear
Clear
94.0 °F
Feels Like 89 °F
N
6.8
Wind Variable Wind from East

Today
High -- | Low -- °F
--% Chance of Precip.
Yesterday
High -- | Low -- °F
Precip. -- in
Pressure 29.85 in
Visibility 10.0 miles
Clouds Clear
Heat Index 89 °F
Dew Point 24 °F
Humidity 8%
Rainfall 0.00 in
Snow Depth Not available.
5:52 AM 8:18 PM
Waning Gibbous, 73% visible
METAR KRNO 242055Z VRB04KT 10SM CLR 34/M08 A3004 RMK AO2 SLP107 T03391083 57016
Pressure 29.85 in
Visibility 10.0 miles
Clouds Clear
Heat Index 89 °F
Dew Point 24 °F
Humidity 8%
Rainfall 0.00 in
Snow Depth Not available.
5:52 AM 8:18 PM
Waning Gibbous, 73% visible
METAR KRNO 242055Z VRB04KT 10SM CLR 34/M08 A3004 RMK AO2 SLP107 T03391083 57016

10-Day Weather Forecast

Almanac

Astronomy

Jul. 24, 2016 Rise Set
Actual Time
Civil Twilight
Nautical Twilight
Astronomical Twilight
Moon
Length of Visible Light
Length of Day
Tomorrow will be .
, % of the Moon is Illuminated

Today's Extremes

State Highs State Lows

Community

WunderPhotos

Upload Photos

1,927,191 photos uploaded!

WunderBlog® & News

Nearby

Air Quality

  Air Quality AQ Index Pollutant
Not available.

Snow Depth

Station Depth Elevation

Earthquake Activity

City Distance Mag. Time & Date
Minimum magnitude displayed is 2.5.

Coastal Water Temperatures

Place Temperature

Stations

Nearby Weather Stations

Station Location Temp. Windchill Dew Point Humidity Wind Precip. Elev Updated Type
                   

Watches & Warnings

There are currently no watches in effect.